createdAt,value
2019-04-26T00:01:03.543Z,19.70
2019-04-26T00:05:10.243Z,19.50
2019-04-26T00:09:31.293Z,19.30
2019-04-26T00:13:54.489Z,19.20
2019-04-26T00:18:00.567Z,18.90
2019-04-26T00:22:06.641Z,18.90
2019-04-26T00:26:13.426Z,18.70
2019-04-26T00:30:19.204Z,18.60
2019-04-26T00:34:24.455Z,18.50
2019-04-26T00:38:29.887Z,18.40
2019-04-26T00:42:36.546Z,18.30
2019-04-26T00:46:45.998Z,18.60
2019-04-26T00:50:52.007Z,18.70
2019-04-26T00:54:59.362Z,18.80
2019-04-26T00:59:05.063Z,18.80
2019-04-26T01:03:10.024Z,18.70
2019-04-26T01:07:15.679Z,18.60
2019-04-26T01:11:21.744Z,18.50
2019-04-26T01:15:27.289Z,18.50
2019-04-26T01:19:33.168Z,18.60
2019-04-26T01:23:41.455Z,18.50
2019-04-26T01:27:46.371Z,18.50
2019-04-26T01:32:01.408Z,18.40
2019-04-26T01:36:13.416Z,18.50
2019-04-26T01:40:18.453Z,18.50
2019-04-26T01:44:40.777Z,18.50
2019-04-26T01:48:54.850Z,18.50
2019-04-26T01:53:00.464Z,18.60
2019-04-26T01:57:06.270Z,18.20
2019-04-26T02:01:30.276Z,17.60
2019-04-26T02:05:35.480Z,17.10
2019-04-26T02:09:40.369Z,16.60
2019-04-26T02:13:45.972Z,16.80
2019-04-26T02:17:52.356Z,16.90
2019-04-26T02:22:19.864Z,17.10
2019-04-26T02:26:35.502Z,17.10
2019-04-26T02:30:40.512Z,17.30
2019-04-26T02:34:45.630Z,17.40
2019-04-26T02:38:51.958Z,17.20
2019-04-26T02:42:57.039Z,17.10
2019-04-26T02:47:34.587Z,17.00
2019-04-26T02:51:46.196Z,17.10
2019-04-26T02:56:16.253Z,16.90
2019-04-26T03:00:21.454Z,17.00
2019-04-26T03:04:30.514Z,17.00
2019-04-26T03:08:39.347Z,16.70
2019-04-26T03:12:47.024Z,16.30
2019-04-26T03:17:17.236Z,16.00
2019-04-26T03:21:34.107Z,15.80
2019-04-26T03:25:45.330Z,15.50
2019-04-26T03:30:19.290Z,15.60
2019-04-26T03:34:26.082Z,15.30
2019-04-26T03:39:10.503Z,15.00
2019-04-26T03:43:39.083Z,14.80
2019-04-26T03:47:54.277Z,14.40
2019-04-26T03:52:55.680Z,14.00
2019-04-26T03:57:32.504Z,13.90
2019-04-26T04:01:47.105Z,13.40
2019-04-26T04:05:55.664Z,13.30
2019-04-26T04:10:06.841Z,13.20
2019-04-26T04:14:28.710Z,13.00
2019-04-26T04:18:36.813Z,12.50
2019-04-26T04:22:47.896Z,12.30
2019-04-26T04:27:33.724Z,12.30
2019-04-26T04:31:43.582Z,12.20
2019-04-26T04:35:54.301Z,11.90
2019-04-26T04:40:24.389Z,12.00
2019-04-26T04:45:22.278Z,12.20
2019-04-26T04:49:59.750Z,12.10
2019-04-26T04:54:19.412Z,11.60
2019-04-26T04:58:31.048Z,11.40
2019-04-26T05:03:00.333Z,11.30
2019-04-26T05:07:29.676Z,11.30
2019-04-26T05:11:51.984Z,11.10
2019-04-26T05:16:15.499Z,11.00
2019-04-26T05:21:05.214Z,10.80
2019-04-26T05:26:13.912Z,10.90
2019-04-26T05:31:01.725Z,10.70
2019-04-26T05:35:22.099Z,10.60
2019-04-26T05:39:40.340Z,10.70
2019-04-26T05:44:13.908Z,10.70
2019-04-26T05:48:58.692Z,10.60
2019-04-26T05:54:18.323Z,10.60
2019-04-26T05:58:52.867Z,10.50
2019-04-26T06:03:30.327Z,10.40
2019-04-26T06:08:31.169Z,10.50
2019-04-26T06:12:58.965Z,10.60
2019-04-26T06:17:35.627Z,10.40
2019-04-26T06:22:22.552Z,10.60
2019-04-26T06:27:07.860Z,10.90
2019-04-26T06:31:28.029Z,10.80
2019-04-26T06:35:36.875Z,10.70
2019-04-26T06:40:04.473Z,10.80
2019-04-26T06:44:17.989Z,11.00
2019-04-26T06:48:44.967Z,11.00
2019-04-26T06:53:11.131Z,11.00
2019-04-26T06:58:03.178Z,11.20
2019-04-26T07:02:18.392Z,11.40
2019-04-26T07:06:34.861Z,11.60
2019-04-26T07:11:33.716Z,11.80
2019-04-26T07:15:52.386Z,11.80
2019-04-26T07:20:42.348Z,11.90
2019-04-26T07:25:33.329Z,11.90
2019-04-26T07:30:30.193Z,11.80
2019-04-26T07:34:49.033Z,11.90
2019-04-26T07:39:26.889Z,12.00
2019-04-26T07:44:33.159Z,11.80
2019-04-26T07:49:30.075Z,12.00
2019-04-26T07:53:48.313Z,12.10
2019-04-26T07:58:46.092Z,12.60
2019-04-26T08:03:08.709Z,12.60
2019-04-26T08:07:22.443Z,12.40
2019-04-26T08:11:36.183Z,12.40
2019-04-26T08:15:53.704Z,12.70
2019-04-26T08:20:20.490Z,12.60
2019-04-26T08:24:28.674Z,12.70
2019-04-26T08:28:36.436Z,12.30
2019-04-26T08:32:48.905Z,12.20
2019-04-26T08:37:19.293Z,12.30
2019-04-26T08:41:25.180Z,12.20
2019-04-26T08:46:01.884Z,12.50
2019-04-26T08:50:09.751Z,12.70
2019-04-26T08:54:21.244Z,12.80
2019-04-26T08:58:29.787Z,12.80
2019-04-26T09:02:50.841Z,13.00
2019-04-26T09:07:13.175Z,12.80
2019-04-26T09:11:25.821Z,13.20
2019-04-26T09:15:51.547Z,13.00
2019-04-26T09:19:58.067Z,12.80
2019-04-26T09:24:24.934Z,12.90
2019-04-26T09:28:46.051Z,12.80
2019-04-26T09:32:58.234Z,12.90
2019-04-26T09:37:04.379Z,13.00
2019-04-26T09:41:09.352Z,13.20
2019-04-26T09:45:48.105Z,12.90
2019-04-26T09:50:04.940Z,12.70
2019-04-26T09:54:09.917Z,12.40
2019-04-26T09:58:14.796Z,11.90
2019-04-26T10:02:19.753Z,11.90
2019-04-26T10:06:26.084Z,11.80
2019-04-26T10:10:35.309Z,11.80
2019-04-26T10:14:46.417Z,11.70
2019-04-26T10:18:58.337Z,11.50
2019-04-26T10:23:01.759Z,11.60
2019-04-26T10:27:06.740Z,11.80
2019-04-26T10:31:13.533Z,11.60
2019-04-26T10:35:21.799Z,11.60
2019-04-26T10:39:28.480Z,11.30
2019-04-26T10:43:31.553Z,11.30
2019-04-26T10:47:38.396Z,11.30
2019-04-26T10:51:44.753Z,11.60
2019-04-26T10:56:20.199Z,11.60
2019-04-26T11:00:33.320Z,11.70
2019-04-26T11:04:41.479Z,11.40
2019-04-26T11:08:44.727Z,11.20
2019-04-26T11:12:49.527Z,11.10
2019-04-26T11:16:54.912Z,10.90
2019-04-26T11:20:59.804Z,10.80
2019-04-26T11:25:04.980Z,10.60
2019-04-26T11:29:10.269Z,10.50
2019-04-26T11:33:15.248Z,10.50
2019-04-26T11:37:20.204Z,10.70
2019-04-26T11:41:25.212Z,10.70
2019-04-26T11:45:31.192Z,10.60
2019-04-26T11:49:37.305Z,10.10
2019-04-26T11:53:44.676Z,9.90
2019-04-26T11:57:51.648Z,9.90
2019-04-26T12:01:56.880Z,9.60
2019-04-26T12:06:36.828Z,9.40
2019-04-26T12:10:44.325Z,9.10
2019-04-26T12:14:48.251Z,8.90
2019-04-26T12:18:53.153Z,8.90
2019-04-26T12:22:57.997Z,8.70
2019-04-26T12:27:02.912Z,8.60
2019-04-26T12:31:07.799Z,8.70
2019-04-26T12:35:13.463Z,8.80
2019-04-26T12:39:19.373Z,8.80
2019-04-26T12:43:26.047Z,8.70
2019-04-26T12:47:40.045Z,8.60
2019-04-26T12:51:47.344Z,8.40
2019-04-26T12:55:53.647Z,8.30
2019-04-26T13:00:01.748Z,8.30
2019-04-26T13:04:06.179Z,8.20
2019-04-26T13:08:13.095Z,8.40
2019-04-26T13:12:35.871Z,8.50
2019-04-26T13:16:57.217Z,8.30
2019-04-26T13:21:02.877Z,8.10
2019-04-26T13:25:15.340Z,8.20
2019-04-26T13:29:14.738Z,8.00
2019-04-26T13:33:19.558Z,8.00
2019-04-26T13:37:26.159Z,8.00
2019-04-26T13:41:31.065Z,8.00
2019-04-26T13:45:44.438Z,7.90
2019-04-26T13:49:57.323Z,7.80
2019-04-26T13:54:02.233Z,7.90
2019-04-26T13:58:07.105Z,7.80
2019-04-26T14:02:12.260Z,7.60
2019-04-26T14:06:17.572Z,7.80
2019-04-26T14:10:24.077Z,7.80
2019-04-26T14:14:30.277Z,7.60
2019-04-26T14:18:39.103Z,7.60
2019-04-26T14:22:49.453Z,7.60
2019-04-26T14:26:56.579Z,7.60
2019-04-26T14:31:01.408Z,7.60
2019-04-26T14:35:06.583Z,7.70
2019-04-26T14:39:14.937Z,7.60
2019-04-26T14:43:18.403Z,7.70
2019-04-26T14:47:26.481Z,7.70
2019-04-26T14:51:31.171Z,7.70
2019-04-26T14:55:36.075Z,7.90
2019-04-26T14:59:47.664Z,7.80
2019-04-26T15:04:10.116Z,7.90
2019-04-26T15:08:14.598Z,7.80
2019-04-26T15:12:19.421Z,8.00
2019-04-26T15:16:24.482Z,7.80
2019-04-26T15:20:29.596Z,7.80
2019-04-26T15:24:38.463Z,7.70
2019-04-26T15:28:43.655Z,7.70
2019-04-26T15:32:47.685Z,7.60
2019-04-26T15:36:54.234Z,7.60
2019-04-26T15:41:27.335Z,7.50
2019-04-26T15:45:54.172Z,7.40
2019-04-26T15:50:09.753Z,7.20
2019-04-26T15:54:10.507Z,7.30
2019-04-26T15:58:15.419Z,7.50
2019-04-26T16:02:24.629Z,7.70
2019-04-26T16:06:26.966Z,7.80
2019-04-26T16:10:36.804Z,8.10
2019-04-26T16:14:39.327Z,8.20
2019-04-26T16:18:44.386Z,8.20
2019-04-26T16:22:49.389Z,8.50
2019-04-26T16:26:56.253Z,8.70
2019-04-26T16:31:26.154Z,8.80
2019-04-26T16:35:32.410Z,8.40
2019-04-26T16:39:38.916Z,8.60
2019-04-26T16:43:50.917Z,8.50
2019-04-26T16:47:54.088Z,8.80
2019-04-26T16:52:05.081Z,9.10
2019-04-26T16:56:06.676Z,9.00
2019-04-26T17:00:16.214Z,8.70
2019-04-26T17:04:29.066Z,9.30
2019-04-26T17:08:27.193Z,9.50
2019-04-26T17:12:33.157Z,9.40
2019-04-26T17:16:39.613Z,9.70
2019-04-26T17:20:48.015Z,9.40
2019-04-26T17:24:59.154Z,9.00
2019-04-26T17:29:04.067Z,8.80
2019-04-26T17:33:09.032Z,9.00
2019-04-26T17:37:17.304Z,9.10
2019-04-26T17:41:20.960Z,9.30
2019-04-26T17:45:28.393Z,8.90
2019-04-26T17:49:34.694Z,8.70
2019-04-26T17:53:48.153Z,8.80
2019-04-26T17:58:09.669Z,8.50
2019-04-26T18:02:01.413Z,8.40
2019-04-26T18:06:09.552Z,8.50
2019-04-26T18:10:14.788Z,8.50
2019-04-26T18:14:21.464Z,8.70
2019-04-26T18:18:49.911Z,8.80
2019-04-26T18:22:55.159Z,8.90
2019-04-26T18:27:00.599Z,8.90
2019-04-26T18:31:07.716Z,8.90
2019-04-26T18:35:16.658Z,8.90
2019-04-26T18:39:22.752Z,8.70
2019-04-26T18:43:27.255Z,8.40
2019-04-26T18:47:36.685Z,8.60
2019-04-26T18:51:48.136Z,8.70
2019-04-26T18:55:50.974Z,8.60
2019-04-26T18:59:55.856Z,8.70
2019-04-26T19:04:09.855Z,8.60
2019-04-26T19:08:09.746Z,8.60
2019-04-26T19:12:18.469Z,8.50
2019-04-26T19:16:31.963Z,8.80
2019-04-26T19:20:39.274Z,9.00
2019-04-26T19:24:44.515Z,9.10
2019-04-26T19:28:49.439Z,9.10
2019-04-26T19:32:55.773Z,9.00
2019-04-26T19:37:01.524Z,8.80
2019-04-26T19:41:07.711Z,9.10
2019-04-26T19:45:19.938Z,9.40
2019-04-26T19:49:42.852Z,9.50
2019-04-26T19:54:02.099Z,9.50
2019-04-26T19:58:20.098Z,9.50
2019-04-26T20:02:22.514Z,9.40
2019-04-26T20:06:27.592Z,8.90
2019-04-26T20:10:34.535Z,8.90
2019-04-26T20:14:47.129Z,8.80
2019-04-26T20:18:45.615Z,8.70
2019-04-26T20:22:51.484Z,8.80
2019-04-26T20:26:57.459Z,8.80
2019-04-26T20:31:16.732Z,8.70
2019-04-26T20:35:26.939Z,8.70
2019-04-26T20:39:29.387Z,8.80
2019-04-26T20:43:36.248Z,8.70
2019-04-26T20:47:41.664Z,8.50
2019-04-26T20:51:47.187Z,8.40
2019-04-26T20:55:54.988Z,8.30
2019-04-26T21:00:03.324Z,8.50
2019-04-26T21:04:08.189Z,8.60
2019-04-26T21:08:13.300Z,8.50
2019-04-26T21:12:18.505Z,8.60
2019-04-26T21:16:24.703Z,8.60
2019-04-26T21:20:32.729Z,8.80
2019-04-26T21:24:39.124Z,8.80
2019-04-26T21:28:56.534Z,8.80
2019-04-26T21:33:15.705Z,8.60
2019-04-26T21:37:31.491Z,8.70
2019-04-26T21:41:36.449Z,8.40
2019-04-26T21:45:41.460Z,8.70
2019-04-26T21:49:46.420Z,8.60
2019-04-26T21:53:52.948Z,8.60
2019-04-26T21:57:58.023Z,8.60
2019-04-26T22:02:03.377Z,9.00
2019-04-26T22:06:08.769Z,9.00
2019-04-26T22:10:23.526Z,9.00
2019-04-26T22:14:33.975Z,9.00
2019-04-26T22:18:50.469Z,9.00
2019-04-26T22:23:21.397Z,9.00
2019-04-26T22:27:27.195Z,9.10
2019-04-26T22:31:33.736Z,8.80
2019-04-26T22:35:39.175Z,8.80
2019-04-26T22:39:45.482Z,8.90
2019-04-26T22:43:59.535Z,9.10
2019-04-26T22:48:18.380Z,8.90
2019-04-26T22:52:18.545Z,9.00
2019-04-26T22:56:23.683Z,8.80
2019-04-26T23:00:33.123Z,8.70
2019-04-26T23:04:38.517Z,8.60
2019-04-26T23:08:43.851Z,8.90
2019-04-26T23:13:10.058Z,9.10
2019-04-26T23:17:34.931Z,8.80
2019-04-26T23:21:45.454Z,8.90
2019-04-26T23:25:49.409Z,8.90
2019-04-26T23:29:57.374Z,9.10
2019-04-26T23:34:02.864Z,9.10
2019-04-26T23:38:07.884Z,9.30
2019-04-26T23:42:16.461Z,9.20
2019-04-26T23:46:22.836Z,9.30
2019-04-26T23:50:29.408Z,9.40
2019-04-26T23:54:35.815Z,9.70
2019-04-26T23:58:40.305Z,9.90
